sensor_id;sensor_type;location;lat;lon;timestamp;P1;durP1;ratioP1;P2;durP2;ratioP2
24008;SDS011;12217;50.792;4.372;2023-12-20T00:00:21;8.55;;;2.80;;
24008;SDS011;12217;50.792;4.372;2023-12-20T00:02:47;15.90;;;2.95;;
24008;SDS011;12217;50.792;4.372;2023-12-20T00:05:13;14.52;;;3.47;;
24008;SDS011;12217;50.792;4.372;2023-12-20T00:07:39;8.40;;;2.60;;
24008;SDS011;12217;50.792;4.372;2023-12-20T00:10:05;11.73;;;3.03;;
24008;SDS011;12217;50.792;4.372;2023-12-20T00:12:31;12.30;;;3.10;;
24008;SDS011;12217;50.792;4.372;2023-12-20T00:14:57;11.18;;;3.20;;
24008;SDS011;12217;50.792;4.372;2023-12-20T00:17:22;16.27;;;3.55;;
24008;SDS011;12217;50.792;4.372;2023-12-20T00:19:48;10.60;;;2.60;;
24008;SDS011;12217;50.792;4.372;2023-12-20T00:22:14;15.18;;;3.20;;
24008;SDS011;12217;50.792;4.372;2023-12-20T00:24:39;13.35;;;3.30;;
24008;SDS011;12217;50.792;4.372;2023-12-20T00:27:05;13.63;;;3.00;;
24008;SDS011;12217;50.792;4.372;2023-12-20T00:29:30;14.43;;;2.90;;
24008;SDS011;12217;50.792;4.372;2023-12-20T00:31:56;12.75;;;2.60;;
24008;SDS011;12217;50.792;4.372;2023-12-20T00:34:22;12.70;;;2.67;;
24008;SDS011;12217;50.792;4.372;2023-12-20T00:36:47;11.77;;;3.22;;
24008;SDS011;12217;50.792;4.372;2023-12-20T00:39:13;12.32;;;2.90;;
24008;SDS011;12217;50.792;4.372;2023-12-20T00:41:38;13.77;;;3.33;;
24008;SDS011;12217;50.792;4.372;2023-12-20T00:44:04;13.43;;;2.75;;
24008;SDS011;12217;50.792;4.372;2023-12-20T00:46:30;12.35;;;3.00;;
24008;SDS011;12217;50.792;4.372;2023-12-20T00:48:55;17.98;;;3.08;;
24008;SDS011;12217;50.792;4.372;2023-12-20T00:51:21;15.00;;;3.00;;
24008;SDS011;12217;50.792;4.372;2023-12-20T00:53:47;11.20;;;3.05;;
24008;SDS011;12217;50.792;4.372;2023-12-20T00:56:15;15.77;;;3.80;;
24008;SDS011;12217;50.792;4.372;2023-12-20T00:58:40;17.38;;;3.20;;
24008;SDS011;12217;50.792;4.372;2023-12-20T01:01:06;11.60;;;2.90;;
24008;SDS011;12217;50.792;4.372;2023-12-20T01:03:32;15.63;;;3.60;;
24008;SDS011;12217;50.792;4.372;2023-12-20T01:05:57;13.20;;;3.38;;
24008;SDS011;12217;50.792;4.372;2023-12-20T01:08:23;17.00;;;3.88;;
24008;SDS011;12217;50.792;4.372;2023-12-20T01:10:48;13.20;;;3.53;;
24008;SDS011;12217;50.792;4.372;2023-12-20T01:13:14;11.23;;;3.42;;
24008;SDS011;12217;50.792;4.372;2023-12-20T01:15:40;22.02;;;3.78;;
24008;SDS011;12217;50.792;4.372;2023-12-20T01:18:05;11.50;;;3.40;;
24008;SDS011;12217;50.792;4.372;2023-12-20T01:20:31;13.73;;;3.70;;
24008;SDS011;12217;50.792;4.372;2023-12-20T01:22:56;15.50;;;3.30;;
24008;SDS011;12217;50.792;4.372;2023-12-20T01:25:22;14.32;;;3.85;;
24008;SDS011;12217;50.792;4.372;2023-12-20T01:27:48;15.02;;;4.47;;
24008;SDS011;12217;50.792;4.372;2023-12-20T01:30:14;12.80;;;3.80;;
24008;SDS011;12217;50.792;4.372;2023-12-20T01:32:40;15.40;;;4.30;;
24008;SDS011;12217;50.792;4.372;2023-12-20T01:35:05;16.70;;;3.88;;
24008;SDS011;12217;50.792;4.372;2023-12-20T01:37:31;12.18;;;3.70;;
24008;SDS011;12217;50.792;4.372;2023-12-20T01:39:57;13.05;;;3.80;;
24008;SDS011;12217;50.792;4.372;2023-12-20T01:42:23;13.40;;;3.67;;
24008;SDS011;12217;50.792;4.372;2023-12-20T01:44:49;17.20;;;4.18;;
24008;SDS011;12217;50.792;4.372;2023-12-20T01:47:15;17.52;;;3.70;;
24008;SDS011;12217;50.792;4.372;2023-12-20T01:49:41;14.82;;;4.05;;
24008;SDS011;12217;50.792;4.372;2023-12-20T01:52:07;10.55;;;3.72;;
24008;SDS011;12217;50.792;4.372;2023-12-20T01:54:34;21.58;;;4.05;;
24008;SDS011;12217;50.792;4.372;2023-12-20T01:57:00;21.42;;;4.63;;
24008;SDS011;12217;50.792;4.372;2023-12-20T01:59:27;18.52;;;4.88;;
24008;SDS011;12217;50.792;4.372;2023-12-20T02:01:54;11.00;;;3.83;;
24008;SDS011;12217;50.792;4.372;2023-12-20T02:04:20;16.55;;;4.25;;
24008;SDS011;12217;50.792;4.372;2023-12-20T02:06:46;20.42;;;4.53;;
24008;SDS011;12217;50.792;4.372;2023-12-20T02:09:12;19.10;;;4.63;;
24008;SDS011;12217;50.792;4.372;2023-12-20T02:11:37;18.92;;;4.45;;
24008;SDS011;12217;50.792;4.372;2023-12-20T02:14:03;18.65;;;4.53;;
24008;SDS011;12217;50.792;4.372;2023-12-20T02:16:29;14.43;;;4.15;;
24008;SDS011;12217;50.792;4.372;2023-12-20T02:18:55;16.48;;;4.45;;
24008;SDS011;12217;50.792;4.372;2023-12-20T02:21:25;15.07;;;4.25;;
24008;SDS011;12217;50.792;4.372;2023-12-20T02:23:56;20.38;;;4.85;;
24008;SDS011;12217;50.792;4.372;2023-12-20T02:26:22;21.13;;;4.65;;
24008;SDS011;12217;50.792;4.372;2023-12-20T02:28:47;16.80;;;4.80;;
24008;SDS011;12217;50.792;4.372;2023-12-20T02:31:13;12.65;;;4.30;;
24008;SDS011;12217;50.792;4.372;2023-12-20T02:33:39;16.17;;;4.25;;
24008;SDS011;12217;50.792;4.372;2023-12-20T02:36:04;14.88;;;4.78;;
24008;SDS011;12217;50.792;4.372;2023-12-20T02:38:31;15.10;;;4.40;;
24008;SDS011;12217;50.792;4.372;2023-12-20T02:40:57;14.38;;;4.65;;
24008;SDS011;12217;50.792;4.372;2023-12-20T02:43:23;14.30;;;5.00;;
24008;SDS011;12217;50.792;4.372;2023-12-20T02:45:48;16.17;;;5.18;;
24008;SDS011;12217;50.792;4.372;2023-12-20T02:48:14;15.38;;;5.10;;
24008;SDS011;12217;50.792;4.372;2023-12-20T02:50:39;21.00;;;5.28;;
24008;SDS011;12217;50.792;4.372;2023-12-20T02:53:05;19.45;;;4.75;;
24008;SDS011;12217;50.792;4.372;2023-12-20T02:55:31;22.25;;;5.47;;
24008;SDS011;12217;50.792;4.372;2023-12-20T02:57:56;19.70;;;5.47;;
24008;SDS011;12217;50.792;4.372;2023-12-20T03:00:22;18.92;;;5.13;;
24008;SDS011;12217;50.792;4.372;2023-12-20T03:02:48;16.58;;;5.65;;
24008;SDS011;12217;50.792;4.372;2023-12-20T03:05:14;17.50;;;5.85;;
24008;SDS011;12217;50.792;4.372;2023-12-20T03:07:39;19.10;;;6.30;;
24008;SDS011;12217;50.792;4.372;2023-12-20T03:10:05;27.63;;;5.82;;
24008;SDS011;12217;50.792;4.372;2023-12-20T03:12:32;17.02;;;6.03;;
24008;SDS011;12217;50.792;4.372;2023-12-20T03:14:58;18.92;;;6.72;;
24008;SDS011;12217;50.792;4.372;2023-12-20T03:17:23;23.15;;;6.35;;
24008;SDS011;12217;50.792;4.372;2023-12-20T03:19:49;24.23;;;6.28;;
24008;SDS011;12217;50.792;4.372;2023-12-20T03:22:14;17.80;;;6.40;;
24008;SDS011;12217;50.792;4.372;2023-12-20T03:24:40;19.67;;;7.18;;
24008;SDS011;12217;50.792;4.372;2023-12-20T03:27:06;20.10;;;6.30;;
24008;SDS011;12217;50.792;4.372;2023-12-20T03:29:31;16.20;;;5.63;;
24008;SDS011;12217;50.792;4.372;2023-12-20T03:31:57;18.35;;;5.82;;
24008;SDS011;12217;50.792;4.372;2023-12-20T03:34:22;16.02;;;5.95;;
24008;SDS011;12217;50.792;4.372;2023-12-20T03:36:48;17.65;;;5.10;;
24008;SDS011;12217;50.792;4.372;2023-12-20T03:39:14;14.25;;;5.32;;
24008;SDS011;12217;50.792;4.372;2023-12-20T03:41:39;18.95;;;5.82;;
24008;SDS011;12217;50.792;4.372;2023-12-20T03:44:05;24.52;;;6.18;;
24008;SDS011;12217;50.792;4.372;2023-12-20T03:46:31;12.85;;;4.50;;
24008;SDS011;12217;50.792;4.372;2023-12-20T03:48:56;19.27;;;5.50;;
24008;SDS011;12217;50.792;4.372;2023-12-20T03:51:22;21.55;;;5.88;;
24008;SDS011;12217;50.792;4.372;2023-12-20T03:53:47;17.15;;;5.80;;
24008;SDS011;12217;50.792;4.372;2023-12-20T03:56:13;17.85;;;5.65;;
24008;SDS011;12217;50.792;4.372;2023-12-20T03:58:38;11.82;;;5.00;;
24008;SDS011;12217;50.792;4.372;2023-12-20T04:01:08;16.67;;;5.10;;
24008;SDS011;12217;50.792;4.372;2023-12-20T04:03:36;18.65;;;5.10;;
24008;SDS011;12217;50.792;4.372;2023-12-20T04:06:02;18.30;;;4.63;;
24008;SDS011;12217;50.792;4.372;2023-12-20T04:08:28;13.25;;;4.78;;
24008;SDS011;12217;50.792;4.372;2023-12-20T04:10:54;17.75;;;5.25;;
24008;SDS011;12217;50.792;4.372;2023-12-20T04:13:19;19.45;;;4.88;;
24008;SDS011;12217;50.792;4.372;2023-12-20T04:15:45;17.20;;;4.88;;
24008;SDS011;12217;50.792;4.372;2023-12-20T04:18:10;19.33;;;5.10;;
24008;SDS011;12217;50.792;4.372;2023-12-20T04:20:36;14.52;;;4.88;;
24008;SDS011;12217;50.792;4.372;2023-12-20T04:23:02;17.00;;;4.75;;
24008;SDS011;12217;50.792;4.372;2023-12-20T04:25:27;17.35;;;5.22;;
24008;SDS011;12217;50.792;4.372;2023-12-20T04:27:53;11.18;;;4.50;;
24008;SDS011;12217;50.792;4.372;2023-12-20T04:30:18;18.95;;;4.90;;
24008;SDS011;12217;50.792;4.372;2023-12-20T04:32:44;19.35;;;5.07;;
24008;SDS011;12217;50.792;4.372;2023-12-20T04:35:10;14.15;;;4.35;;
24008;SDS011;12217;50.792;4.372;2023-12-20T04:37:35;15.88;;;4.85;;
24008;SDS011;12217;50.792;4.372;2023-12-20T04:40:01;16.83;;;5.07;;
24008;SDS011;12217;50.792;4.372;2023-12-20T04:42:27;18.00;;;4.90;;
24008;SDS011;12217;50.792;4.372;2023-12-20T04:44:52;13.85;;;4.70;;
24008;SDS011;12217;50.792;4.372;2023-12-20T04:47:18;17.27;;;5.32;;
24008;SDS011;12217;50.792;4.372;2023-12-20T04:49:43;15.20;;;4.88;;
24008;SDS011;12217;50.792;4.372;2023-12-20T04:52:09;20.23;;;4.93;;
24008;SDS011;12217;50.792;4.372;2023-12-20T04:54:35;15.80;;;4.80;;
24008;SDS011;12217;50.792;4.372;2023-12-20T04:57:00;16.67;;;5.05;;
24008;SDS011;12217;50.792;4.372;2023-12-20T04:59:26;18.25;;;4.95;;
24008;SDS011;12217;50.792;4.372;2023-12-20T05:01:51;21.25;;;5.07;;
24008;SDS011;12217;50.792;4.372;2023-12-20T05:04:17;14.27;;;4.75;;
24008;SDS011;12217;50.792;4.372;2023-12-20T05:06:43;13.43;;;4.43;;
24008;SDS011;12217;50.792;4.372;2023-12-20T05:09:08;22.42;;;5.55;;
24008;SDS011;12217;50.792;4.372;2023-12-20T05:11:34;19.55;;;5.28;;
24008;SDS011;12217;50.792;4.372;2023-12-20T05:13:59;18.95;;;5.50;;
24008;SDS011;12217;50.792;4.372;2023-12-20T05:16:25;19.08;;;5.30;;
24008;SDS011;12217;50.792;4.372;2023-12-20T05:18:50;13.40;;;5.10;;
24008;SDS011;12217;50.792;4.372;2023-12-20T05:21:17;14.52;;;5.20;;
24008;SDS011;12217;50.792;4.372;2023-12-20T05:23:43;24.38;;;5.97;;
24008;SDS011;12217;50.792;4.372;2023-12-20T05:26:08;17.35;;;5.07;;
24008;SDS011;12217;50.792;4.372;2023-12-20T05:28:34;15.73;;;5.40;;
24008;SDS011;12217;50.792;4.372;2023-12-20T05:30:59;16.58;;;5.38;;
24008;SDS011;12217;50.792;4.372;2023-12-20T05:33:25;18.33;;;5.03;;
24008;SDS011;12217;50.792;4.372;2023-12-20T05:35:51;16.02;;;4.53;;
24008;SDS011;12217;50.792;4.372;2023-12-20T05:38:16;17.42;;;4.57;;
24008;SDS011;12217;50.792;4.372;2023-12-20T05:40:42;16.08;;;4.50;;
24008;SDS011;12217;50.792;4.372;2023-12-20T05:43:07;15.32;;;4.63;;
24008;SDS011;12217;50.792;4.372;2023-12-20T05:45:33;16.73;;;4.32;;
24008;SDS011;12217;50.792;4.372;2023-12-20T05:47:59;17.35;;;4.97;;
24008;SDS011;12217;50.792;4.372;2023-12-20T05:50:25;16.25;;;4.32;;
24008;SDS011;12217;50.792;4.372;2023-12-20T05:52:50;18.02;;;4.53;;
24008;SDS011;12217;50.792;4.372;2023-12-20T05:55:16;12.77;;;4.70;;
24008;SDS011;12217;50.792;4.372;2023-12-20T05:57:41;14.13;;;4.38;;
24008;SDS011;12217;50.792;4.372;2023-12-20T06:00:08;17.83;;;4.72;;
24008;SDS011;12217;50.792;4.372;2023-12-20T06:02:34;16.60;;;4.63;;
24008;SDS011;12217;50.792;4.372;2023-12-20T06:05:01;18.60;;;4.85;;
24008;SDS011;12217;50.792;4.372;2023-12-20T06:07:29;18.33;;;5.00;;
24008;SDS011;12217;50.792;4.372;2023-12-20T06:09:54;18.50;;;4.85;;
24008;SDS011;12217;50.792;4.372;2023-12-20T06:12:20;17.25;;;5.15;;
24008;SDS011;12217;50.792;4.372;2023-12-20T06:14:45;20.27;;;4.72;;
24008;SDS011;12217;50.792;4.372;2023-12-20T06:17:11;23.75;;;5.07;;
24008;SDS011;12217;50.792;4.372;2023-12-20T06:19:37;17.63;;;5.00;;
24008;SDS011;12217;50.792;4.372;2023-12-20T06:22:02;17.55;;;4.53;;
24008;SDS011;12217;50.792;4.372;2023-12-20T06:24:28;24.23;;;4.97;;
24008;SDS011;12217;50.792;4.372;2023-12-20T06:26:54;19.80;;;5.30;;
24008;SDS011;12217;50.792;4.372;2023-12-20T06:29:20;16.17;;;4.32;;
24008;SDS011;12217;50.792;4.372;2023-12-20T06:31:46;20.88;;;4.72;;
24008;SDS011;12217;50.792;4.372;2023-12-20T06:34:11;17.95;;;5.25;;
24008;SDS011;12217;50.792;4.372;2023-12-20T06:36:37;14.30;;;4.65;;
24008;SDS011;12217;50.792;4.372;2023-12-20T06:39:03;19.83;;;5.10;;
24008;SDS011;12217;50.792;4.372;2023-12-20T06:41:29;18.30;;;4.25;;
24008;SDS011;12217;50.792;4.372;2023-12-20T06:43:55;14.60;;;4.85;;
24008;SDS011;12217;50.792;4.372;2023-12-20T06:46:21;22.15;;;4.57;;
24008;SDS011;12217;50.792;4.372;2023-12-20T06:48:47;22.65;;;4.43;;
24008;SDS011;12217;50.792;4.372;2023-12-20T06:51:14;18.63;;;4.10;;
24008;SDS011;12217;50.792;4.372;2023-12-20T06:53:41;15.75;;;4.32;;
24008;SDS011;12217;50.792;4.372;2023-12-20T06:56:06;22.10;;;4.72;;
24008;SDS011;12217;50.792;4.372;2023-12-20T06:58:32;11.40;;;4.00;;
24008;SDS011;12217;50.792;4.372;2023-12-20T07:00:58;16.63;;;3.95;;
24008;SDS011;12217;50.792;4.372;2023-12-20T07:03:23;19.05;;;4.47;;
24008;SDS011;12217;50.792;4.372;2023-12-20T07:05:49;19.00;;;4.32;;
24008;SDS011;12217;50.792;4.372;2023-12-20T07:08:15;20.55;;;4.13;;
24008;SDS011;12217;50.792;4.372;2023-12-20T07:10:41;17.65;;;4.45;;
24008;SDS011;12217;50.792;4.372;2023-12-20T07:13:06;18.00;;;4.38;;
24008;SDS011;12217;50.792;4.372;2023-12-20T07:15:33;19.05;;;3.92;;
24008;SDS011;12217;50.792;4.372;2023-12-20T07:17:58;19.02;;;4.22;;
24008;SDS011;12217;50.792;4.372;2023-12-20T07:20:25;22.30;;;4.00;;
24008;SDS011;12217;50.792;4.372;2023-12-20T07:22:51;16.67;;;3.95;;
24008;SDS011;12217;50.792;4.372;2023-12-20T07:25:16;15.05;;;3.97;;
24008;SDS011;12217;50.792;4.372;2023-12-20T07:27:43;24.27;;;4.13;;
24008;SDS011;12217;50.792;4.372;2023-12-20T07:30:08;22.08;;;5.15;;
24008;SDS011;12217;50.792;4.372;2023-12-20T07:32:34;19.55;;;4.95;;
24008;SDS011;12217;50.792;4.372;2023-12-20T07:35:00;21.10;;;4.93;;
24008;SDS011;12217;50.792;4.372;2023-12-20T07:37:27;16.67;;;3.80;;
24008;SDS011;12217;50.792;4.372;2023-12-20T07:39:52;18.73;;;4.25;;
24008;SDS011;12217;50.792;4.372;2023-12-20T07:42:18;16.42;;;4.20;;
24008;SDS011;12217;50.792;4.372;2023-12-20T07:44:43;14.73;;;3.95;;
24008;SDS011;12217;50.792;4.372;2023-12-20T07:47:09;19.08;;;4.03;;
24008;SDS011;12217;50.792;4.372;2023-12-20T07:49:37;14.15;;;3.63;;
24008;SDS011;12217;50.792;4.372;2023-12-20T07:52:02;20.60;;;4.07;;
24008;SDS011;12217;50.792;4.372;2023-12-20T07:54:28;19.35;;;3.50;;
24008;SDS011;12217;50.792;4.372;2023-12-20T07:56:54;22.02;;;5.25;;
24008;SDS011;12217;50.792;4.372;2023-12-20T07:59:20;17.30;;;4.47;;
24008;SDS011;12217;50.792;4.372;2023-12-20T08:01:45;25.45;;;4.53;;
24008;SDS011;12217;50.792;4.372;2023-12-20T08:04:11;19.95;;;4.38;;
24008;SDS011;12217;50.792;4.372;2023-12-20T08:06:37;18.33;;;4.20;;
24008;SDS011;12217;50.792;4.372;2023-12-20T08:09:02;16.30;;;3.92;;
24008;SDS011;12217;50.792;4.372;2023-12-20T08:11:29;17.95;;;4.45;;
24008;SDS011;12217;50.792;4.372;2023-12-20T08:13:54;15.52;;;4.63;;
24008;SDS011;12217;50.792;4.372;2023-12-20T08:16:20;18.40;;;4.00;;
24008;SDS011;12217;50.792;4.372;2023-12-20T08:18:46;18.98;;;4.05;;
24008;SDS011;12217;50.792;4.372;2023-12-20T08:21:12;16.75;;;4.07;;
24008;SDS011;12217;50.792;4.372;2023-12-20T08:23:38;20.23;;;4.32;;
24008;SDS011;12217;50.792;4.372;2023-12-20T08:26:04;17.77;;;4.47;;
24008;SDS011;12217;50.792;4.372;2023-12-20T08:28:31;24.65;;;4.00;;
24008;SDS011;12217;50.792;4.372;2023-12-20T08:30:56;14.77;;;4.13;;
24008;SDS011;12217;50.792;4.372;2023-12-20T08:33:22;18.05;;;3.97;;
24008;SDS011;12217;50.792;4.372;2023-12-20T08:35:47;18.10;;;3.72;;
24008;SDS011;12217;50.792;4.372;2023-12-20T08:38:13;23.65;;;4.40;;
24008;SDS011;12217;50.792;4.372;2023-12-20T08:40:39;21.98;;;3.97;;
24008;SDS011;12217;50.792;4.372;2023-12-20T08:43:05;16.02;;;4.25;;
24008;SDS011;12217;50.792;4.372;2023-12-20T08:45:30;16.88;;;4.20;;
24008;SDS011;12217;50.792;4.372;2023-12-20T08:47:56;23.23;;;3.85;;
24008;SDS011;12217;50.792;4.372;2023-12-20T08:50:21;21.63;;;4.80;;
24008;SDS011;12217;50.792;4.372;2023-12-20T08:52:47;21.83;;;4.68;;
24008;SDS011;12217;50.792;4.372;2023-12-20T08:55:13;19.20;;;4.25;;
24008;SDS011;12217;50.792;4.372;2023-12-20T08:57:40;18.48;;;3.72;;
24008;SDS011;12217;50.792;4.372;2023-12-20T09:00:05;15.18;;;3.17;;
24008;SDS011;12217;50.792;4.372;2023-12-20T09:02:32;18.63;;;4.40;;
24008;SDS011;12217;50.792;4.372;2023-12-20T09:05:01;30.58;;;5.38;;
24008;SDS011;12217;50.792;4.372;2023-12-20T09:07:27;30.92;;;5.20;;
24008;SDS011;12217;50.792;4.372;2023-12-20T09:09:55;38.40;;;5.85;;
24008;SDS011;12217;50.792;4.372;2023-12-20T09:12:21;12.88;;;4.03;;
24008;SDS011;12217;50.792;4.372;2023-12-20T09:14:47;21.85;;;4.60;;
24008;SDS011;12217;50.792;4.372;2023-12-20T09:17:15;22.10;;;4.10;;
24008;SDS011;12217;50.792;4.372;2023-12-20T09:19:41;21.65;;;4.07;;
24008;SDS011;12217;50.792;4.372;2023-12-20T09:22:08;16.13;;;4.07;;
24008;SDS011;12217;50.792;4.372;2023-12-20T09:24:34;22.20;;;4.38;;
24008;SDS011;12217;50.792;4.372;2023-12-20T09:27:00;22.73;;;5.10;;
24008;SDS011;12217;50.792;4.372;2023-12-20T09:29:25;18.80;;;4.00;;
24008;SDS011;12217;50.792;4.372;2023-12-20T09:31:51;18.40;;;4.00;;
24008;SDS011;12217;50.792;4.372;2023-12-20T09:34:17;15.23;;;4.00;;
24008;SDS011;12217;50.792;4.372;2023-12-20T09:36:42;17.90;;;3.83;;
24008;SDS011;12217;50.792;4.372;2023-12-20T09:39:13;18.90;;;3.60;;
24008;SDS011;12217;50.792;4.372;2023-12-20T09:41:41;24.02;;;4.47;;
24008;SDS011;12217;50.792;4.372;2023-12-20T09:44:08;16.70;;;3.95;;
24008;SDS011;12217;50.792;4.372;2023-12-20T09:46:39;19.67;;;4.78;;
24008;SDS011;12217;50.792;4.372;2023-12-20T09:49:09;24.58;;;4.75;;
24008;SDS011;12217;50.792;4.372;2023-12-20T09:51:35;18.77;;;4.53;;
24008;SDS011;12217;50.792;4.372;2023-12-20T09:54:03;23.50;;;4.65;;
24008;SDS011;12217;50.792;4.372;2023-12-20T09:56:29;19.48;;;5.07;;
24008;SDS011;12217;50.792;4.372;2023-12-20T09:58:55;20.67;;;4.47;;
24008;SDS011;12217;50.792;4.372;2023-12-20T10:01:21;22.52;;;4.38;;
24008;SDS011;12217;50.792;4.372;2023-12-20T10:03:48;17.52;;;3.95;;
24008;SDS011;12217;50.792;4.372;2023-12-20T10:06:16;17.65;;;4.10;;
24008;SDS011;12217;50.792;4.372;2023-12-20T10:08:42;20.98;;;4.38;;
24008;SDS011;12217;50.792;4.372;2023-12-20T10:11:08;18.63;;;4.15;;
24008;SDS011;12217;50.792;4.372;2023-12-20T10:13:34;16.70;;;4.47;;
24008;SDS011;12217;50.792;4.372;2023-12-20T10:16:07;14.75;;;4.43;;
24008;SDS011;12217;50.792;4.372;2023-12-20T10:18:33;18.95;;;4.20;;
24008;SDS011;12217;50.792;4.372;2023-12-20T10:21:00;17.00;;;3.60;;
24008;SDS011;12217;50.792;4.372;2023-12-20T10:23:26;23.45;;;4.13;;
24008;SDS011;12217;50.792;4.372;2023-12-20T10:26:00;21.00;;;4.38;;
24008;SDS011;12217;50.792;4.372;2023-12-20T10:28:26;15.40;;;4.00;;
24008;SDS011;12217;50.792;4.372;2023-12-20T10:30:57;16.95;;;3.70;;
24008;SDS011;12217;50.792;4.372;2023-12-20T10:33:30;18.60;;;4.55;;
24008;SDS011;12217;50.792;4.372;2023-12-20T10:36:03;18.58;;;3.80;;
24008;SDS011;12217;50.792;4.372;2023-12-20T10:38:50;20.40;;;3.80;;
24008;SDS011;12217;50.792;4.372;2023-12-20T10:41:19;18.60;;;3.85;;
24008;SDS011;12217;50.792;4.372;2023-12-20T10:43:53;18.38;;;4.22;;
24008;SDS011;12217;50.792;4.372;2023-12-20T10:46:26;18.70;;;4.05;;
24008;SDS011;12217;50.792;4.372;2023-12-20T10:48:53;17.75;;;4.10;;
24008;SDS011;12217;50.792;4.372;2023-12-20T10:51:20;19.52;;;3.53;;
24008;SDS011;12217;50.792;4.372;2023-12-20T10:53:48;13.85;;;3.53;;
24008;SDS011;12217;50.792;4.372;2023-12-20T10:56:16;18.23;;;4.13;;
24008;SDS011;12217;50.792;4.372;2023-12-20T10:58:43;24.42;;;4.07;;
24008;SDS011;12217;50.792;4.372;2023-12-20T11:01:09;21.45;;;4.60;;
24008;SDS011;12217;50.792;4.372;2023-12-20T11:03:39;17.05;;;4.63;;
24008;SDS011;12217;50.792;4.372;2023-12-20T11:09:43;14.98;;;4.55;;
24008;SDS011;12217;50.792;4.372;2023-12-20T11:12:23;21.08;;;3.72;;
24008;SDS011;12217;50.792;4.372;2023-12-20T11:14:57;16.67;;;3.75;;
24008;SDS011;12217;50.792;4.372;2023-12-20T11:17:29;18.50;;;4.03;;
24008;SDS011;12217;50.792;4.372;2023-12-20T11:22:22;18.90;;;3.85;;
24008;SDS011;12217;50.792;4.372;2023-12-20T11:24:50;13.85;;;3.97;;
24008;SDS011;12217;50.792;4.372;2023-12-20T11:27:16;22.00;;;4.72;;
24008;SDS011;12217;50.792;4.372;2023-12-20T11:29:50;17.60;;;3.92;;
24008;SDS011;12217;50.792;4.372;2023-12-20T11:37:36;19.00;;;4.10;;
24008;SDS011;12217;50.792;4.372;2023-12-20T11:40:05;22.92;;;4.15;;
24008;SDS011;12217;50.792;4.372;2023-12-20T11:42:38;31.17;;;4.93;;
24008;SDS011;12217;50.792;4.372;2023-12-20T11:45:05;23.92;;;8.40;;
24008;SDS011;12217;50.792;4.372;2023-12-20T11:47:34;19.40;;;4.43;;
24008;SDS011;12217;50.792;4.372;2023-12-20T11:50:00;18.15;;;4.20;;
24008;SDS011;12217;50.792;4.372;2023-12-20T11:52:28;22.20;;;4.75;;
24008;SDS011;12217;50.792;4.372;2023-12-20T11:54:54;22.85;;;4.20;;
24008;SDS011;12217;50.792;4.372;2023-12-20T11:57:20;18.55;;;4.05;;
24008;SDS011;12217;50.792;4.372;2023-12-20T11:59:46;16.70;;;3.92;;
24008;SDS011;12217;50.792;4.372;2023-12-20T12:02:12;18.98;;;4.22;;
24008;SDS011;12217;50.792;4.372;2023-12-20T12:04:40;18.10;;;3.88;;
24008;SDS011;12217;50.792;4.372;2023-12-20T12:07:06;18.73;;;4.35;;
24008;SDS011;12217;50.792;4.372;2023-12-20T12:09:32;23.10;;;3.58;;
24008;SDS011;12217;50.792;4.372;2023-12-20T12:11:58;28.45;;;4.65;;
24008;SDS011;12217;50.792;4.372;2023-12-20T12:14:24;19.58;;;4.13;;
24008;SDS011;12217;50.792;4.372;2023-12-20T12:16:50;15.20;;;3.83;;
24008;SDS011;12217;50.792;4.372;2023-12-20T12:19:24;19.83;;;3.90;;
24008;SDS011;12217;50.792;4.372;2023-12-20T12:21:51;17.17;;;4.80;;
24008;SDS011;12217;50.792;4.372;2023-12-20T12:24:40;37.83;;;9.20;;
24008;SDS011;12217;50.792;4.372;2023-12-20T12:27:07;31.55;;;8.30;;
24008;SDS011;12217;50.792;4.372;2023-12-20T12:29:34;20.08;;;5.22;;
24008;SDS011;12217;50.792;4.372;2023-12-20T12:32:00;13.95;;;4.22;;
24008;SDS011;12217;50.792;4.372;2023-12-20T12:34:29;20.70;;;4.93;;
24008;SDS011;12217;50.792;4.372;2023-12-20T12:36:55;17.45;;;4.72;;
24008;SDS011;12217;50.792;4.372;2023-12-20T12:39:22;18.77;;;3.75;;
24008;SDS011;12217;50.792;4.372;2023-12-20T12:41:52;22.15;;;4.68;;
24008;SDS011;12217;50.792;4.372;2023-12-20T12:44:18;17.60;;;4.45;;
24008;SDS011;12217;50.792;4.372;2023-12-20T12:46:45;20.33;;;4.38;;
24008;SDS011;12217;50.792;4.372;2023-12-20T12:49:11;19.17;;;4.38;;
24008;SDS011;12217;50.792;4.372;2023-12-20T12:51:37;16.08;;;3.30;;
24008;SDS011;12217;50.792;4.372;2023-12-20T12:54:03;21.35;;;4.13;;
24008;SDS011;12217;50.792;4.372;2023-12-20T12:56:29;16.75;;;4.03;;
24008;SDS011;12217;50.792;4.372;2023-12-20T12:58:54;18.42;;;4.05;;
24008;SDS011;12217;50.792;4.372;2023-12-20T13:01:20;19.77;;;3.53;;
24008;SDS011;12217;50.792;4.372;2023-12-20T13:03:46;19.33;;;4.07;;
24008;SDS011;12217;50.792;4.372;2023-12-20T13:06:12;19.58;;;4.20;;
24008;SDS011;12217;50.792;4.372;2023-12-20T13:08:37;16.65;;;3.78;;
24008;SDS011;12217;50.792;4.372;2023-12-20T13:11:03;19.75;;;3.72;;
24008;SDS011;12217;50.792;4.372;2023-12-20T13:13:29;18.73;;;3.65;;
24008;SDS011;12217;50.792;4.372;2023-12-20T13:15:56;17.70;;;3.72;;
24008;SDS011;12217;50.792;4.372;2023-12-20T13:18:22;16.95;;;4.25;;
24008;SDS011;12217;50.792;4.372;2023-12-20T13:20:48;17.00;;;3.60;;
24008;SDS011;12217;50.792;4.372;2023-12-20T13:23:14;18.55;;;3.85;;
24008;SDS011;12217;50.792;4.372;2023-12-20T13:25:40;16.77;;;4.20;;
24008;SDS011;12217;50.792;4.372;2023-12-20T13:28:10;17.70;;;4.35;;
24008;SDS011;12217;50.792;4.372;2023-12-20T13:30:35;16.73;;;4.28;;
24008;SDS011;12217;50.792;4.372;2023-12-20T13:33:01;16.67;;;4.07;;
24008;SDS011;12217;50.792;4.372;2023-12-20T13:35:27;22.80;;;5.10;;
24008;SDS011;12217;50.792;4.372;2023-12-20T13:37:52;14.82;;;3.83;;
24008;SDS011;12217;50.792;4.372;2023-12-20T13:40:18;21.92;;;4.00;;
24008;SDS011;12217;50.792;4.372;2023-12-20T13:42:44;17.55;;;4.28;;
24008;SDS011;12217;50.792;4.372;2023-12-20T13:45:10;20.20;;;4.65;;
24008;SDS011;12217;50.792;4.372;2023-12-20T13:47:36;17.35;;;4.50;;
24008;SDS011;12217;50.792;4.372;2023-12-20T13:50:02;16.70;;;4.10;;
24008;SDS011;12217;50.792;4.372;2023-12-20T13:52:29;23.45;;;5.13;;
24008;SDS011;12217;50.792;4.372;2023-12-20T13:54:54;14.30;;;3.97;;
24008;SDS011;12217;50.792;4.372;2023-12-20T13:57:20;16.05;;;4.82;;
24008;SDS011;12217;50.792;4.372;2023-12-20T13:59:46;14.55;;;4.80;;
24008;SDS011;12217;50.792;4.372;2023-12-20T14:02:11;24.80;;;5.07;;
24008;SDS011;12217;50.792;4.372;2023-12-20T14:04:37;14.77;;;4.40;;
24008;SDS011;12217;50.792;4.372;2023-12-20T14:07:04;20.15;;;4.35;;
24008;SDS011;12217;50.792;4.372;2023-12-20T14:09:30;19.50;;;4.30;;
24008;SDS011;12217;50.792;4.372;2023-12-20T14:11:56;25.38;;;5.00;;
24008;SDS011;12217;50.792;4.372;2023-12-20T14:14:21;19.30;;;5.40;;
24008;SDS011;12217;50.792;4.372;2023-12-20T14:16:47;17.58;;;4.40;;
24008;SDS011;12217;50.792;4.372;2023-12-20T14:19:12;14.93;;;4.32;;
24008;SDS011;12217;50.792;4.372;2023-12-20T14:21:38;19.05;;;4.13;;
24008;SDS011;12217;50.792;4.372;2023-12-20T14:24:04;16.67;;;4.43;;
24008;SDS011;12217;50.792;4.372;2023-12-20T14:26:30;21.80;;;4.70;;
24008;SDS011;12217;50.792;4.372;2023-12-20T14:28:56;18.02;;;4.82;;
24008;SDS011;12217;50.792;4.372;2023-12-20T14:31:22;14.93;;;4.07;;
24008;SDS011;12217;50.792;4.372;2023-12-20T14:33:50;18.10;;;5.85;;
24008;SDS011;12217;50.792;4.372;2023-12-20T14:36:16;19.55;;;4.85;;
24008;SDS011;12217;50.792;4.372;2023-12-20T14:38:43;28.77;;;5.47;;
24008;SDS011;12217;50.792;4.372;2023-12-20T14:41:09;19.45;;;4.45;;